sensor_id;sensor_type;location;lat;lon;timestamp;P1;durP1;ratioP1;P2;durP2;ratioP2
27670;SDS011;15077;49.704;9.908;2022-12-18T00:01:26;13.52;;;9.27;;
27670;SDS011;15077;49.704;9.908;2022-12-18T00:04:03;18.27;;;9.65;;
27670;SDS011;15077;49.704;9.908;2022-12-18T00:06:36;21.10;;;11.05;;
27670;SDS011;15077;49.704;9.908;2022-12-18T00:09:03;20.88;;;9.95;;
27670;SDS011;15077;49.704;9.908;2022-12-18T00:11:29;15.77;;;8.27;;
27670;SDS011;15077;49.704;9.908;2022-12-18T00:13:57;18.70;;;9.73;;
27670;SDS011;15077;49.704;9.908;2022-12-18T00:16:26;17.05;;;9.35;;
27670;SDS011;15077;49.704;9.908;2022-12-18T00:18:58;24.40;;;13.73;;
27670;SDS011;15077;49.704;9.908;2022-12-18T00:21:27;25.00;;;12.18;;
27670;SDS011;15077;49.704;9.908;2022-12-18T00:23:55;22.25;;;13.60;;
27670;SDS011;15077;49.704;9.908;2022-12-18T00:26:23;22.50;;;11.43;;
27670;SDS011;15077;49.704;9.908;2022-12-18T00:28:52;18.95;;;11.10;;
27670;SDS011;15077;49.704;9.908;2022-12-18T00:31:21;20.10;;;10.40;;
27670;SDS011;15077;49.704;9.908;2022-12-18T00:33:49;17.92;;;9.43;;
27670;SDS011;15077;49.704;9.908;2022-12-18T00:36:17;15.85;;;10.13;;
27670;SDS011;15077;49.704;9.908;2022-12-18T00:38:46;17.70;;;8.98;;
27670;SDS011;15077;49.704;9.908;2022-12-18T00:41:14;17.75;;;9.75;;
27670;SDS011;15077;49.704;9.908;2022-12-18T00:44:00;21.02;;;12.15;;
27670;SDS011;15077;49.704;9.908;2022-12-18T00:46:27;17.67;;;10.20;;
27670;SDS011;15077;49.704;9.908;2022-12-18T00:48:52;18.20;;;9.85;;
27670;SDS011;15077;49.704;9.908;2022-12-18T00:51:18;17.13;;;9.80;;
27670;SDS011;15077;49.704;9.908;2022-12-18T00:53:44;19.40;;;10.50;;
27670;SDS011;15077;49.704;9.908;2022-12-18T00:56:11;18.35;;;10.18;;
27670;SDS011;15077;49.704;9.908;2022-12-18T00:58:40;20.10;;;11.20;;
27670;SDS011;15077;49.704;9.908;2022-12-18T01:01:06;20.42;;;10.35;;
27670;SDS011;15077;49.704;9.908;2022-12-18T01:03:33;16.80;;;9.05;;
27670;SDS011;15077;49.704;9.908;2022-12-18T01:06:04;22.98;;;13.73;;
27670;SDS011;15077;49.704;9.908;2022-12-18T01:08:36;14.05;;;8.57;;
27670;SDS011;15077;49.704;9.908;2022-12-18T01:11:07;13.65;;;8.50;;
27670;SDS011;15077;49.704;9.908;2022-12-18T01:13:45;14.60;;;9.10;;
27670;SDS011;15077;49.704;9.908;2022-12-18T01:16:13;18.13;;;9.55;;
27670;SDS011;15077;49.704;9.908;2022-12-18T01:18:42;17.38;;;9.43;;
27670;SDS011;15077;49.704;9.908;2022-12-18T01:21:12;18.30;;;10.48;;
27670;SDS011;15077;49.704;9.908;2022-12-18T01:23:42;15.13;;;8.95;;
27670;SDS011;15077;49.704;9.908;2022-12-18T01:26:08;15.10;;;8.40;;
27670;SDS011;15077;49.704;9.908;2022-12-18T01:28:38;13.85;;;8.43;;
27670;SDS011;15077;49.704;9.908;2022-12-18T01:31:39;14.38;;;9.45;;
27670;SDS011;15077;49.704;9.908;2022-12-18T01:34:02;15.63;;;7.78;;
27670;SDS011;15077;49.704;9.908;2022-12-18T01:36:31;16.27;;;9.30;;
27670;SDS011;15077;49.704;9.908;2022-12-18T01:39:01;17.35;;;9.18;;
27670;SDS011;15077;49.704;9.908;2022-12-18T01:41:35;15.10;;;8.85;;
27670;SDS011;15077;49.704;9.908;2022-12-18T01:52:36;29.45;;;14.10;;
27670;SDS011;15077;49.704;9.908;2022-12-18T01:55:04;23.98;;;12.25;;
27670;SDS011;15077;49.704;9.908;2022-12-18T01:57:31;18.40;;;10.35;;
27670;SDS011;15077;49.704;9.908;2022-12-18T02:00:03;18.90;;;10.05;;
27670;SDS011;15077;49.704;9.908;2022-12-18T02:02:34;15.75;;;8.20;;
27670;SDS011;15077;49.704;9.908;2022-12-18T02:05:00;16.23;;;8.55;;
27670;SDS011;15077;49.704;9.908;2022-12-18T02:07:37;13.65;;;8.45;;
27670;SDS011;15077;49.704;9.908;2022-12-18T02:16:08;14.48;;;8.25;;
27670;SDS011;15077;49.704;9.908;2022-12-18T02:28:45;21.27;;;10.63;;
27670;SDS011;15077;49.704;9.908;2022-12-18T02:31:47;28.42;;;14.52;;
27670;SDS011;15077;49.704;9.908;2022-12-18T02:34:19;24.88;;;14.25;;
27670;SDS011;15077;49.704;9.908;2022-12-18T02:36:54;26.83;;;15.55;;
27670;SDS011;15077;49.704;9.908;2022-12-18T02:39:22;19.88;;;11.40;;
27670;SDS011;15077;49.704;9.908;2022-12-18T02:41:51;21.52;;;11.40;;
27670;SDS011;15077;49.704;9.908;2022-12-18T02:44:18;20.65;;;10.38;;
27670;SDS011;15077;49.704;9.908;2022-12-18T02:46:45;16.70;;;9.90;;
27670;SDS011;15077;49.704;9.908;2022-12-18T03:00:40;22.00;;;11.07;;
27670;SDS011;15077;49.704;9.908;2022-12-18T03:03:39;21.75;;;10.90;;
27670;SDS011;15077;49.704;9.908;2022-12-18T03:06:24;22.23;;;10.68;;
27670;SDS011;15077;49.704;9.908;2022-12-18T03:09:29;16.35;;;8.75;;
27670;SDS011;15077;49.704;9.908;2022-12-18T03:17:32;21.13;;;10.48;;
27670;SDS011;15077;49.704;9.908;2022-12-18T03:20:04;20.85;;;10.20;;
27670;SDS011;15077;49.704;9.908;2022-12-18T03:22:37;18.73;;;9.63;;
27670;SDS011;15077;49.704;9.908;2022-12-18T03:25:08;16.67;;;9.10;;
27670;SDS011;15077;49.704;9.908;2022-12-18T03:27:41;13.35;;;7.55;;
27670;SDS011;15077;49.704;9.908;2022-12-18T03:30:13;15.60;;;8.35;;
27670;SDS011;15077;49.704;9.908;2022-12-18T03:32:43;12.45;;;7.05;;
27670;SDS011;15077;49.704;9.908;2022-12-18T03:35:29;14.07;;;7.47;;
27670;SDS011;15077;49.704;9.908;2022-12-18T03:37:59;15.13;;;7.93;;
27670;SDS011;15077;49.704;9.908;2022-12-18T03:40:40;10.55;;;6.90;;
27670;SDS011;15077;49.704;9.908;2022-12-18T03:46:05;11.70;;;6.90;;
27670;SDS011;15077;49.704;9.908;2022-12-18T03:49:02;13.57;;;7.32;;
27670;SDS011;15077;49.704;9.908;2022-12-18T03:54:19;15.48;;;6.82;;
27670;SDS011;15077;49.704;9.908;2022-12-18T03:56:48;15.70;;;8.63;;
27670;SDS011;15077;49.704;9.908;2022-12-18T03:59:23;15.95;;;8.65;;
27670;SDS011;15077;49.704;9.908;2022-12-18T04:01:51;18.77;;;9.65;;
27670;SDS011;15077;49.704;9.908;2022-12-18T04:04:19;18.15;;;8.93;;
27670;SDS011;15077;49.704;9.908;2022-12-18T04:06:49;16.40;;;9.10;;
27670;SDS011;15077;49.704;9.908;2022-12-18T04:09:17;16.30;;;8.00;;
27670;SDS011;15077;49.704;9.908;2022-12-18T04:11:45;16.25;;;8.73;;
27670;SDS011;15077;49.704;9.908;2022-12-18T04:14:11;13.52;;;7.55;;
27670;SDS011;15077;49.704;9.908;2022-12-18T04:16:38;20.17;;;10.40;;
27670;SDS011;15077;49.704;9.908;2022-12-18T04:19:04;16.90;;;8.38;;
27670;SDS011;15077;49.704;9.908;2022-12-18T04:21:30;17.65;;;8.60;;
27670;SDS011;15077;49.704;9.908;2022-12-18T04:23:55;15.45;;;8.68;;
27670;SDS011;15077;49.704;9.908;2022-12-18T04:26:21;17.70;;;8.07;;
27670;SDS011;15077;49.704;9.908;2022-12-18T04:28:47;17.38;;;7.78;;
27670;SDS011;15077;49.704;9.908;2022-12-18T04:31:13;15.57;;;9.13;;
27670;SDS011;15077;49.704;9.908;2022-12-18T04:33:39;19.98;;;8.55;;
27670;SDS011;15077;49.704;9.908;2022-12-18T04:36:05;20.92;;;9.45;;
27670;SDS011;15077;49.704;9.908;2022-12-18T04:38:31;19.67;;;9.10;;
27670;SDS011;15077;49.704;9.908;2022-12-18T04:40:58;17.27;;;9.02;;
27670;SDS011;15077;49.704;9.908;2022-12-18T04:43:24;24.08;;;12.27;;
27670;SDS011;15077;49.704;9.908;2022-12-18T04:45:50;25.63;;;11.55;;
27670;SDS011;15077;49.704;9.908;2022-12-18T04:48:15;23.05;;;10.00;;
27670;SDS011;15077;49.704;9.908;2022-12-18T04:50:41;23.00;;;9.50;;
27670;SDS011;15077;49.704;9.908;2022-12-18T04:53:07;18.13;;;8.70;;
27670;SDS011;15077;49.704;9.908;2022-12-18T04:55:33;19.05;;;9.05;;
27670;SDS011;15077;49.704;9.908;2022-12-18T04:57:58;19.20;;;10.48;;
27670;SDS011;15077;49.704;9.908;2022-12-18T05:00:24;15.13;;;8.75;;
27670;SDS011;15077;49.704;9.908;2022-12-18T05:02:50;16.42;;;8.15;;
27670;SDS011;15077;49.704;9.908;2022-12-18T05:05:16;16.25;;;8.85;;
27670;SDS011;15077;49.704;9.908;2022-12-18T05:07:42;16.40;;;8.20;;
27670;SDS011;15077;49.704;9.908;2022-12-18T05:10:09;13.52;;;7.32;;
27670;SDS011;15077;49.704;9.908;2022-12-18T05:12:36;26.27;;;12.48;;
27670;SDS011;15077;49.704;9.908;2022-12-18T05:15:24;29.30;;;14.75;;
27670;SDS011;15077;49.704;9.908;2022-12-18T05:17:56;32.30;;;17.23;;
27670;SDS011;15077;49.704;9.908;2022-12-18T05:20:23;29.85;;;14.15;;
27670;SDS011;15077;49.704;9.908;2022-12-18T05:22:50;30.98;;;14.20;;
27670;SDS011;15077;49.704;9.908;2022-12-18T05:25:17;28.88;;;12.98;;
27670;SDS011;15077;49.704;9.908;2022-12-18T05:27:44;30.85;;;14.20;;
27670;SDS011;15077;49.704;9.908;2022-12-18T05:30:12;25.95;;;12.27;;
27670;SDS011;15077;49.704;9.908;2022-12-18T05:32:38;29.42;;;11.57;;
27670;SDS011;15077;49.704;9.908;2022-12-18T05:35:07;20.48;;;11.07;;
27670;SDS011;15077;49.704;9.908;2022-12-18T05:37:35;20.88;;;11.02;;
27670;SDS011;15077;49.704;9.908;2022-12-18T05:40:01;30.23;;;14.63;;
27670;SDS011;15077;49.704;9.908;2022-12-18T05:42:29;23.75;;;13.30;;
27670;SDS011;15077;49.704;9.908;2022-12-18T05:44:56;27.70;;;12.55;;
27670;SDS011;15077;49.704;9.908;2022-12-18T05:47:21;29.23;;;13.23;;
27670;SDS011;15077;49.704;9.908;2022-12-18T05:49:47;24.40;;;12.85;;
27670;SDS011;15077;49.704;9.908;2022-12-18T05:52:13;33.35;;;17.35;;
27670;SDS011;15077;49.704;9.908;2022-12-18T05:54:39;57.00;;;26.95;;
27670;SDS011;15077;49.704;9.908;2022-12-18T05:57:04;61.25;;;28.33;;
27670;SDS011;15077;49.704;9.908;2022-12-18T05:59:30;51.47;;;25.42;;
27670;SDS011;15077;49.704;9.908;2022-12-18T06:01:56;51.13;;;24.20;;
27670;SDS011;15077;49.704;9.908;2022-12-18T06:04:22;57.53;;;23.60;;
27670;SDS011;15077;49.704;9.908;2022-12-18T06:06:48;47.40;;;22.13;;
27670;SDS011;15077;49.704;9.908;2022-12-18T06:09:14;54.63;;;24.17;;
27670;SDS011;15077;49.704;9.908;2022-12-18T06:11:39;57.40;;;25.63;;
27670;SDS011;15077;49.704;9.908;2022-12-18T06:14:05;57.40;;;24.27;;
27670;SDS011;15077;49.704;9.908;2022-12-18T06:16:31;59.20;;;25.35;;
27670;SDS011;15077;49.704;9.908;2022-12-18T06:18:58;69.32;;;30.58;;
27670;SDS011;15077;49.704;9.908;2022-12-18T06:21:26;70.25;;;28.98;;
27670;SDS011;15077;49.704;9.908;2022-12-18T06:23:53;56.85;;;27.48;;
27670;SDS011;15077;49.704;9.908;2022-12-18T06:26:19;66.47;;;31.90;;
27670;SDS011;15077;49.704;9.908;2022-12-18T06:28:45;60.92;;;26.77;;
27670;SDS011;15077;49.704;9.908;2022-12-18T06:31:10;58.75;;;29.77;;
27670;SDS011;15077;49.704;9.908;2022-12-18T06:33:37;64.13;;;28.70;;
27670;SDS011;15077;49.704;9.908;2022-12-18T06:36:05;56.03;;;26.23;;
27670;SDS011;15077;49.704;9.908;2022-12-18T06:38:35;63.47;;;30.40;;
27670;SDS011;15077;49.704;9.908;2022-12-18T06:41:10;64.38;;;31.95;;
27670;SDS011;15077;49.704;9.908;2022-12-18T06:43:38;62.35;;;27.38;;
27670;SDS011;15077;49.704;9.908;2022-12-18T06:46:04;55.72;;;25.13;;
27670;SDS011;15077;49.704;9.908;2022-12-18T06:48:31;47.17;;;22.80;;
27670;SDS011;15077;49.704;9.908;2022-12-18T06:50:57;54.22;;;24.77;;
27670;SDS011;15077;49.704;9.908;2022-12-18T06:53:24;56.58;;;26.08;;
27670;SDS011;15077;49.704;9.908;2022-12-18T06:55:50;48.22;;;23.08;;
27670;SDS011;15077;49.704;9.908;2022-12-18T06:58:16;46.30;;;21.13;;
27670;SDS011;15077;49.704;9.908;2022-12-18T07:00:42;41.30;;;19.10;;
27670;SDS011;15077;49.704;9.908;2022-12-18T07:03:08;48.67;;;21.35;;
27670;SDS011;15077;49.704;9.908;2022-12-18T07:05:39;40.28;;;19.27;;
27670;SDS011;15077;49.704;9.908;2022-12-18T07:08:06;41.95;;;19.77;;
27670;SDS011;15077;49.704;9.908;2022-12-18T07:10:32;35.88;;;18.05;;
27670;SDS011;15077;49.704;9.908;2022-12-18T07:12:57;43.42;;;20.13;;
27670;SDS011;15077;49.704;9.908;2022-12-18T07:15:23;50.25;;;22.45;;
27670;SDS011;15077;49.704;9.908;2022-12-18T07:17:49;43.80;;;21.10;;
27670;SDS011;15077;49.704;9.908;2022-12-18T07:20:14;40.28;;;18.20;;
27670;SDS011;15077;49.704;9.908;2022-12-18T07:22:40;50.40;;;21.88;;
27670;SDS011;15077;49.704;9.908;2022-12-18T07:25:06;46.75;;;21.17;;
27670;SDS011;15077;49.704;9.908;2022-12-18T07:27:33;48.60;;;22.50;;
27670;SDS011;15077;49.704;9.908;2022-12-18T07:29:59;44.97;;;19.92;;
27670;SDS011;15077;49.704;9.908;2022-12-18T07:32:24;50.45;;;21.83;;
27670;SDS011;15077;49.704;9.908;2022-12-18T07:34:50;44.47;;;21.63;;
27670;SDS011;15077;49.704;9.908;2022-12-18T07:37:16;38.72;;;17.25;;
27670;SDS011;15077;49.704;9.908;2022-12-18T07:39:42;45.88;;;20.00;;
27670;SDS011;15077;49.704;9.908;2022-12-18T07:42:07;57.15;;;22.17;;
27670;SDS011;15077;49.704;9.908;2022-12-18T07:44:51;47.85;;;19.63;;
27670;SDS011;15077;49.704;9.908;2022-12-18T07:47:17;48.03;;;20.67;;
27670;SDS011;15077;49.704;9.908;2022-12-18T07:49:43;54.28;;;22.73;;
27670;SDS011;15077;49.704;9.908;2022-12-18T07:52:09;54.78;;;22.90;;
27670;SDS011;15077;49.704;9.908;2022-12-18T07:54:34;47.15;;;20.27;;
27670;SDS011;15077;49.704;9.908;2022-12-18T07:57:00;50.25;;;22.63;;
27670;SDS011;15077;49.704;9.908;2022-12-18T07:59:26;59.92;;;24.42;;
27670;SDS011;15077;49.704;9.908;2022-12-18T08:01:51;64.18;;;27.50;;
27670;SDS011;15077;49.704;9.908;2022-12-18T08:04:17;56.97;;;26.45;;
27670;SDS011;15077;49.704;9.908;2022-12-18T08:06:43;55.72;;;24.55;;
27670;SDS011;15077;49.704;9.908;2022-12-18T08:09:09;47.08;;;22.30;;
27670;SDS011;15077;49.704;9.908;2022-12-18T08:11:35;52.35;;;24.02;;
27670;SDS011;15077;49.704;9.908;2022-12-18T08:14:01;55.65;;;22.40;;
27670;SDS011;15077;49.704;9.908;2022-12-18T08:16:27;45.13;;;20.02;;
27670;SDS011;15077;49.704;9.908;2022-12-18T08:18:53;54.90;;;22.00;;
27670;SDS011;15077;49.704;9.908;2022-12-18T08:21:20;57.30;;;22.80;;
27670;SDS011;15077;49.704;9.908;2022-12-18T08:23:50;51.97;;;21.90;;
27670;SDS011;15077;49.704;9.908;2022-12-18T08:26:18;47.25;;;20.25;;
27670;SDS011;15077;49.704;9.908;2022-12-18T08:28:44;53.08;;;23.08;;
27670;SDS011;15077;49.704;9.908;2022-12-18T08:31:11;56.15;;;21.98;;
27670;SDS011;15077;49.704;9.908;2022-12-18T08:33:37;54.95;;;21.85;;
27670;SDS011;15077;49.704;9.908;2022-12-18T08:36:04;50.95;;;20.27;;
27670;SDS011;15077;49.704;9.908;2022-12-18T08:38:32;51.58;;;24.05;;
27670;SDS011;15077;49.704;9.908;2022-12-18T08:40:58;56.95;;;24.00;;
27670;SDS011;15077;49.704;9.908;2022-12-18T08:43:30;59.97;;;25.08;;
27670;SDS011;15077;49.704;9.908;2022-12-18T08:46:15;47.92;;;20.50;;
27670;SDS011;15077;49.704;9.908;2022-12-18T08:48:42;47.28;;;20.45;;
27670;SDS011;15077;49.704;9.908;2022-12-18T08:51:08;54.03;;;23.17;;
27670;SDS011;15077;49.704;9.908;2022-12-18T08:53:35;51.35;;;23.67;;
27670;SDS011;15077;49.704;9.908;2022-12-18T08:56:02;54.22;;;22.30;;
27670;SDS011;15077;49.704;9.908;2022-12-18T08:58:28;60.25;;;23.48;;
27670;SDS011;15077;49.704;9.908;2022-12-18T09:00:59;57.22;;;23.05;;
27670;SDS011;15077;49.704;9.908;2022-12-18T09:03:29;52.13;;;20.55;;
27670;SDS011;15077;49.704;9.908;2022-12-18T09:05:55;46.70;;;19.08;;
27670;SDS011;15077;49.704;9.908;2022-12-18T09:08:21;48.70;;;21.02;;
27670;SDS011;15077;49.704;9.908;2022-12-18T09:10:48;58.25;;;24.30;;
27670;SDS011;15077;49.704;9.908;2022-12-18T09:13:15;57.05;;;23.40;;
27670;SDS011;15077;49.704;9.908;2022-12-18T09:15:42;53.83;;;22.98;;
27670;SDS011;15077;49.704;9.908;2022-12-18T09:18:13;58.83;;;23.08;;
27670;SDS011;15077;49.704;9.908;2022-12-18T09:20:41;54.53;;;21.00;;
27670;SDS011;15077;49.704;9.908;2022-12-18T09:23:07;41.50;;;19.80;;
27670;SDS011;15077;49.704;9.908;2022-12-18T09:25:34;50.03;;;21.05;;
27670;SDS011;15077;49.704;9.908;2022-12-18T09:28:05;54.03;;;23.08;;
27670;SDS011;15077;49.704;9.908;2022-12-18T09:30:43;54.25;;;24.65;;
27670;SDS011;15077;49.704;9.908;2022-12-18T09:33:12;52.40;;;23.27;;
27670;SDS011;15077;49.704;9.908;2022-12-18T09:35:39;54.13;;;24.23;;
27670;SDS011;15077;49.704;9.908;2022-12-18T09:38:07;53.65;;;22.75;;
27670;SDS011;15077;49.704;9.908;2022-12-18T09:40:48;56.78;;;24.23;;
27670;SDS011;15077;49.704;9.908;2022-12-18T09:43:26;55.47;;;23.95;;
27670;SDS011;15077;49.704;9.908;2022-12-18T09:46:25;46.83;;;21.05;;
27670;SDS011;15077;49.704;9.908;2022-12-18T09:48:57;55.78;;;22.20;;
27670;SDS011;15077;49.704;9.908;2022-12-18T09:51:36;44.05;;;19.65;;
27670;SDS011;15077;49.704;9.908;2022-12-18T09:54:14;51.22;;;22.65;;
27670;SDS011;15077;49.704;9.908;2022-12-18T09:56:48;53.35;;;21.85;;
27670;SDS011;15077;49.704;9.908;2022-12-18T09:59:21;55.30;;;22.33;;
27670;SDS011;15077;49.704;9.908;2022-12-18T10:01:58;49.30;;;21.80;;
27670;SDS011;15077;49.704;9.908;2022-12-18T10:04:24;50.00;;;20.55;;
27670;SDS011;15077;49.704;9.908;2022-12-18T10:07:01;48.80;;;20.93;;
27670;SDS011;15077;49.704;9.908;2022-12-18T10:09:46;49.92;;;21.95;;
27670;SDS011;15077;49.704;9.908;2022-12-18T10:18:02;47.03;;;20.83;;
27670;SDS011;15077;49.704;9.908;2022-12-18T10:20:55;34.97;;;15.60;;
27670;SDS011;15077;49.704;9.908;2022-12-18T10:26:40;50.65;;;22.63;;
27670;SDS011;15077;49.704;9.908;2022-12-18T10:29:14;48.83;;;21.05;;
27670;SDS011;15077;49.704;9.908;2022-12-18T10:31:41;58.17;;;23.63;;
27670;SDS011;15077;49.704;9.908;2022-12-18T10:34:11;43.55;;;21.13;;
27670;SDS011;15077;49.704;9.908;2022-12-18T10:36:38;44.95;;;19.88;;
27670;SDS011;15077;49.704;9.908;2022-12-18T10:41:50;44.45;;;20.48;;
27670;SDS011;15077;49.704;9.908;2022-12-18T10:44:18;47.08;;;20.05;;
27670;SDS011;15077;49.704;9.908;2022-12-18T10:46:47;46.78;;;21.42;;
27670;SDS011;15077;49.704;9.908;2022-12-18T10:49:22;49.28;;;21.58;;
27670;SDS011;15077;49.704;9.908;2022-12-18T10:54:52;45.65;;;18.67;;
27670;SDS011;15077;49.704;9.908;2022-12-18T10:57:32;46.53;;;18.65;;
27670;SDS011;15077;49.704;9.908;2022-12-18T11:02:55;47.58;;;21.50;;
27670;SDS011;15077;49.704;9.908;2022-12-18T11:05:43;45.47;;;21.52;;
27670;SDS011;15077;49.704;9.908;2022-12-18T11:08:11;44.67;;;19.33;;
27670;SDS011;15077;49.704;9.908;2022-12-18T11:10:49;46.78;;;20.75;;
27670;SDS011;15077;49.704;9.908;2022-12-18T11:13:21;45.08;;;20.17;;
27670;SDS011;15077;49.704;9.908;2022-12-18T11:15:50;48.58;;;21.05;;
27670;SDS011;15077;49.704;9.908;2022-12-18T11:21:08;42.72;;;21.25;;
27670;SDS011;15077;49.704;9.908;2022-12-18T11:23:43;47.55;;;20.13;;
27670;SDS011;15077;49.704;9.908;2022-12-18T11:26:18;49.15;;;21.05;;
27670;SDS011;15077;49.704;9.908;2022-12-18T11:28:52;42.05;;;20.25;;
27670;SDS011;15077;49.704;9.908;2022-12-18T11:31:35;45.80;;;20.83;;
27670;SDS011;15077;49.704;9.908;2022-12-18T11:37:09;41.45;;;17.30;;
27670;SDS011;15077;49.704;9.908;2022-12-18T11:39:40;38.45;;;18.80;;
27670;SDS011;15077;49.704;9.908;2022-12-18T11:42:25;46.38;;;20.95;;
27670;SDS011;15077;49.704;9.908;2022-12-18T11:47:46;44.75;;;19.50;;
27670;SDS011;15077;49.704;9.908;2022-12-18T11:50:52;47.63;;;20.25;;
27670;SDS011;15077;49.704;9.908;2022-12-18T11:53:25;37.15;;;17.52;;
27670;SDS011;15077;49.704;9.908;2022-12-18T11:58:47;46.95;;;20.75;;
27670;SDS011;15077;49.704;9.908;2022-12-18T12:09:10;47.53;;;20.45;;
27670;SDS011;15077;49.704;9.908;2022-12-18T12:12:27;50.50;;;22.25;;
27670;SDS011;15077;49.704;9.908;2022-12-18T12:18:01;41.90;;;18.25;;
27670;SDS011;15077;49.704;9.908;2022-12-18T12:21:06;42.22;;;19.58;;
27670;SDS011;15077;49.704;9.908;2022-12-18T12:36:32;37.83;;;17.67;;
27670;SDS011;15077;49.704;9.908;2022-12-18T12:38:49;44.10;;;18.50;;
27670;SDS011;15077;49.704;9.908;2022-12-18T12:41:23;41.25;;;17.98;;
27670;SDS011;15077;49.704;9.908;2022-12-18T12:44:15;43.60;;;19.90;;
27670;SDS011;15077;49.704;9.908;2022-12-18T12:46:49;33.22;;;16.33;;
27670;SDS011;15077;49.704;9.908;2022-12-18T12:49:22;37.03;;;16.95;;
27670;SDS011;15077;49.704;9.908;2022-12-18T12:51:59;38.13;;;17.50;;
27670;SDS011;15077;49.704;9.908;2022-12-18T12:54:37;43.70;;;19.17;;
27670;SDS011;15077;49.704;9.908;2022-12-18T13:00:10;34.80;;;18.35;;
27670;SDS011;15077;49.704;9.908;2022-12-18T13:05:28;36.65;;;18.63;;
27670;SDS011;15077;49.704;9.908;2022-12-18T13:08:10;35.42;;;17.13;;
27670;SDS011;15077;49.704;9.908;2022-12-18T13:10:48;33.85;;;14.85;;
27670;SDS011;15077;49.704;9.908;2022-12-18T13:13:14;34.40;;;15.27;;
27670;SDS011;15077;49.704;9.908;2022-12-18T13:18:29;29.88;;;14.80;;
27670;SDS011;15077;49.704;9.908;2022-12-18T13:25:51;36.33;;;15.77;;
27670;SDS011;15077;49.704;9.908;2022-12-18T13:31:13;33.47;;;14.80;;
27670;SDS011;15077;49.704;9.908;2022-12-18T13:34:14;29.83;;;14.38;;
27670;SDS011;15077;49.704;9.908;2022-12-18T13:36:44;34.67;;;16.98;;
27670;SDS011;15077;49.704;9.908;2022-12-18T13:41:39;30.05;;;14.77;;
27670;SDS011;15077;49.704;9.908;2022-12-18T13:47:01;34.90;;;16.73;;
27670;SDS011;15077;49.704;9.908;2022-12-18T13:55:14;30.42;;;15.10;;
27670;SDS011;15077;49.704;9.908;2022-12-18T13:57:43;38.88;;;18.38;;
27670;SDS011;15077;49.704;9.908;2022-12-18T14:02:47;36.38;;;17.42;;
27670;SDS011;15077;49.704;9.908;2022-12-18T14:08:00;31.17;;;15.93;;
27670;SDS011;15077;49.704;9.908;2022-12-18T14:10:30;33.22;;;16.27;;
27670;SDS011;15077;49.704;9.908;2022-12-18T14:12:57;37.10;;;16.85;;
27670;SDS011;15077;49.704;9.908;2022-12-18T14:15:41;33.80;;;15.40;;
27670;SDS011;15077;49.704;9.908;2022-12-18T14:21:02;29.08;;;13.93;;
27670;SDS011;15077;49.704;9.908;2022-12-18T14:26:21;28.30;;;13.07;;
27670;SDS011;15077;49.704;9.908;2022-12-18T14:28:54;29.42;;;13.85;;
27670;SDS011;15077;49.704;9.908;2022-12-18T14:31:41;31.70;;;14.80;;
27670;SDS011;15077;49.704;9.908;2022-12-18T14:34:08;30.73;;;14.30;;
27670;SDS011;15077;49.704;9.908;2022-12-18T14:36:41;29.60;;;14.40;;
27670;SDS011;15077;49.704;9.908;2022-12-18T14:39:17;30.50;;;14.25;;
27670;SDS011;15077;49.704;9.908;2022-12-18T14:41:43;23.63;;;11.73;;
27670;SDS011;15077;49.704;9.908;2022-12-18T14:44:10;26.70;;;13.73;;
27670;SDS011;15077;49.704;9.908;2022-12-18T14:46:38;23.80;;;13.48;;
27670;SDS011;15077;49.704;9.908;2022-12-18T14:49:18;20.95;;;10.65;;
27670;SDS011;15077;49.704;9.908;2022-12-18T14:52:13;18.30;;;9.77;;
27670;SDS011;15077;49.704;9.908;2022-12-18T14:54:49;19.90;;;9.57;;
27670;SDS011;15077;49.704;9.908;2022-12-18T15:00:06;20.33;;;9.88;;
27670;SDS011;15077;49.704;9.908;2022-12-18T15:02:46;29.63;;;13.02;;
27670;SDS011;15077;49.704;9.908;2022-12-18T15:05:24;31.63;;;16.13;;
27670;SDS011;15077;49.704;9.908;2022-12-18T15:07:54;33.42;;;16.58;;
27670;SDS011;15077;49.704;9.908;2022-12-18T15:10:23;29.92;;;14.38;;
27670;SDS011;15077;49.704;9.908;2022-12-18T15:20:38;20.70;;;10.32;;
27670;SDS011;15077;49.704;9.908;2022-12-18T15:23:16;33.05;;;16.48;;
27670;SDS011;15077;49.704;9.908;2022-12-18T15:25:58;34.65;;;19.40;;
27670;SDS011;15077;49.704;9.908;2022-12-18T15:28:37;30.13;;;15.60;;
27670;SDS011;15077;49.704;9.908;2022-12-18T15:33:39;35.33;;;15.63;;
27670;SDS011;15077;49.704;9.908;2022-12-18T15:36:25;27.98;;;15.18;;
27670;SDS011;15077;49.704;9.908;2022-12-18T15:38:52;27.83;;;13.25;;
27670;SDS011;15077;49.704;9.908;2022-12-18T15:41:21;20.35;;;11.30;;
27670;SDS011;15077;49.704;9.908;2022-12-18T15:43:49;17.15;;;9.77;;
27670;SDS011;15077;49.704;9.908;2022-12-18T15:46:19;16.45;;;9.30;;
27670;SDS011;15077;49.704;9.908;2022-12-18T15:51:18;19.27;;;9.73;;
27670;SDS011;15077;49.704;9.908;2022-12-18T15:53:46;17.33;;;8.73;;
27670;SDS011;15077;49.704;9.908;2022-12-18T15:56:18;20.00;;;10.32;;
27670;SDS011;15077;49.704;9.908;2022-12-18T15:59:04;15.20;;;7.78;;
27670;SDS011;15077;49.704;9.908;2022-12-18T16:01:37;14.40;;;7.57;;
27670;SDS011;15077;49.704;9.908;2022-12-18T16:04:03;16.83;;;8.15;;
27670;SDS011;15077;49.704;9.908;2022-12-18T16:06:29;16.38;;;8.90;;
27670;SDS011;15077;49.704;9.908;2022-12-18T16:08:54;22.23;;;11.35;;
27670;SDS011;15077;49.704;9.908;2022-12-18T16:11:27;21.58;;;12.18;;
27670;SDS011;15077;49.704;9.908;2022-12-18T16:14:16;22.40;;;11.10;;
27670;SDS011;15077;49.704;9.908;2022-12-18T16:16:45;24.23;;;13.27;;
27670;SDS011;15077;49.704;9.908;2022-12-18T16:19:16;24.70;;;13.63;;
27670;SDS011;15077;49.704;9.908;2022-12-18T16:21:43;26.27;;;13.45;;
27670;SDS011;15077;49.704;9.908;2022-12-18T16:24:21;27.75;;;13.80;;
27670;SDS011;15077;49.704;9.908;2022-12-18T16:26:50;22.35;;;10.90;;
27670;SDS011;15077;49.704;9.908;2022-12-18T16:29:17;21.10;;;10.85;;
27670;SDS011;15077;49.704;9.908;2022-12-18T16:31:44;19.48;;;9.75;;
27670;SDS011;15077;49.704;9.908;2022-12-18T16:36:52;25.17;;;12.90;;
27670;SDS011;15077;49.704;9.908;2022-12-18T16:39:21;27.95;;;14.57;;
27670;SDS011;15077;49.704;9.908;2022-12-18T16:41:47;22.10;;;11.52;;
27670;SDS011;15077;49.704;9.908;2022-12-18T16:44:13;23.17;;;12.80;;
27670;SDS011;15077;49.704;9.908;2022-12-18T16:46:40;22.25;;;11.73;;
27670;SDS011;15077;49.704;9.908;2022-12-18T16:49:08;27.70;;;14.32;;
27670;SDS011;15077;49.704;9.908;2022-12-18T16:51:35;22.08;;;13.27;;
27670;SDS011;15077;49.704;9.908;2022-12-18T16:54:01;26.95;;;14.00;;
27670;SDS011;15077;49.704;9.908;2022-12-18T16:56:27;29.48;;;13.15;;
27670;SDS011;15077;49.704;9.908;2022-12-18T16:58:53;29.92;;;16.15;;
27670;SDS011;15077;49.704;9.908;2022-12-18T17:01:21;32.58;;;14.98;;
27670;SDS011;15077;49.704;9.908;2022-12-18T17:03:56;32.97;;;18.20;;
27670;SDS011;15077;49.704;9.908;2022-12-18T17:06:26;34.20;;;17.40;;
27670;SDS011;15077;49.704;9.908;2022-12-18T17:08:57;43.70;;;20.23;;
27670;SDS011;15077;49.704;9.908;2022-12-18T17:11:25;42.15;;;19.80;;
27670;SDS011;15077;49.704;9.908;2022-12-18T17:13:53;32.17;;;16.05;;
27670;SDS011;15077;49.704;9.908;2022-12-18T17:16:20;34.00;;;18.00;;
27670;SDS011;15077;49.704;9.908;2022-12-18T17:18:47;33.97;;;16.48;;
27670;SDS011;15077;49.704;9.908;2022-12-18T17:21:13;27.35;;;14.50;;